Time;durP1;ratioP1;P1;durP2;ratioP2;P2;SDS_P1;SDS_P2;PMS_P1;PMS_P2;Temp;Humidity;BMP_temperature;BMP_pressure;BME280_temperature;BME280_humidity;BME280_pressure;Samples;Min_cycle;Max_cycle;Signal;HPM_P1;HPM_P2
2021/11/08 00:00:32;;;;;;;3.25;1.02;;;;;12.50;101789.00;;;;5036134;28;20199;-86
2021/11/08 00:03:04;;;;;;;3.00;1.35;;;;;12.50;101800.00;;;;5048654;28;20192;-85
2021/11/08 00:05:36;;;;;;;3.53;1.17;;;;;12.50;101798.00;;;;5031809;28;20283;-85
2021/11/08 00:08:03;;;;;;;5.13;1.50;;;;;12.50;101793.00;;;;5038066;28;20645;-85
2021/11/08 00:10:33;;;;;;;6.68;2.22;;;;;12.50;101806.00;;;;5039710;28;20200;-85
2021/11/08 00:13:04;;;;;;;5.40;1.73;;;;;12.40;101805.00;;;;5042966;28;20670;-86
2021/11/08 00:15:37;;;;;;;2.80;1.70;;;;;12.40;101806.00;;;;5047061;28;20207;-86
2021/11/08 00:18:09;;;;;;;2.72;1.50;;;;;12.30;101800.00;;;;5047104;28;20199;-86
2021/11/08 00:20:42;;;;;;;4.80;1.58;;;;;12.30;101802.00;;;;5031892;28;20218;-86
2021/11/08 00:23:10;;;;;;;2.78;1.63;;;;;12.30;101806.00;;;;5029823;28;20733;-85
2021/11/08 00:25:39;;;;;;;2.60;1.70;;;;;12.30;101809.00;;;;5045084;28;20214;-85
2021/11/08 00:28:07;;;;;;;3.30;1.52;;;;;12.20;101810.00;;;;5045190;28;20670;-86
2021/11/08 00:30:35;;;;;;;2.92;1.52;;;;;12.20;101805.00;;;;5040169;28;20294;-86
2021/11/08 00:33:03;;;;;;;3.72;1.70;;;;;12.20;101806.00;;;;5048846;28;20250;-85
2021/11/08 00:35:31;;;;;;;2.28;1.38;;;;;12.20;101811.00;;;;5049402;28;20210;-86
2021/11/08 00:37:59;;;;;;;2.05;1.25;;;;;12.20;101818.00;;;;5049053;28;20204;-85
2021/11/08 00:40:26;;;;;;;3.05;1.35;;;;;12.10;101802.00;;;;5032941;28;20204;-86
2021/11/08 00:42:54;;;;;;;3.22;1.40;;;;;12.10;101810.00;;;;5030223;28;20200;-86
2021/11/08 00:45:23;;;;;;;3.70;1.42;;;;;12.10;101804.00;;;;5041602;28;20234;-86
2021/11/08 00:47:51;;;;;;;2.45;1.15;;;;;12.00;101814.00;;;;5043954;28;20199;-85
2021/11/08 00:50:18;;;;;;;3.53;1.42;;;;;12.00;101814.00;;;;5035659;28;20219;-85
2021/11/08 00:52:48;;;;;;;4.50;1.55;;;;;12.00;101809.00;;;;5046220;28;20822;-87
2021/11/08 00:55:16;;;;;;;7.57;2.00;;;;;12.00;101803.00;;;;5033437;28;20200;-86
2021/11/08 00:57:45;;;;;;;5.35;1.35;;;;;12.00;101798.00;;;;5038915;28;20588;-85
2021/11/08 01:00:15;;;;;;;5.22;1.38;;;;;12.00;101805.00;;;;5042506;28;20201;-85
2021/11/08 01:02:43;;;;;;;2.47;1.02;;;;;12.00;101808.00;;;;5044299;28;20211;-86
2021/11/08 01:05:13;;;;;;;3.75;1.67;;;;;12.00;101822.00;;;;5043911;28;20227;-85
2021/11/08 01:07:40;;;;;;;3.00;1.40;;;;;12.00;101812.00;;;;5043398;28;20211;-86
2021/11/08 01:10:12;;;;;;;3.08;1.05;;;;;11.90;101818.00;;;;5042739;28;20200;-86
2021/11/08 01:12:39;;;;;;;3.30;1.10;;;;;12.00;101822.00;;;;5048621;28;20219;-85
2021/11/08 01:15:08;;;;;;;2.58;0.80;;;;;11.90;101827.00;;;;5037958;28;20630;-85
2021/11/08 01:17:36;;;;;;;5.80;0.93;;;;;11.90;101829.00;;;;5039694;28;20226;-86
2021/11/08 01:20:06;;;;;;;1.55;1.17;;;;;11.90;101822.00;;;;5036550;28;20204;-85
2021/11/08 01:22:34;;;;;;;4.05;1.20;;;;;11.90;101819.00;;;;5029039;28;20205;-86
2021/11/08 01:25:03;;;;;;;2.50;0.90;;;;;11.90;101814.00;;;;5045277;28;20214;-86
2021/11/08 01:27:36;;;;;;;2.60;1.15;;;;;11.80;101815.00;;;;5048881;28;20191;-86
2021/11/08 01:30:08;;;;;;;4.82;0.95;;;;;11.80;101817.00;;;;5030574;28;20193;-85
2021/11/08 01:32:35;;;;;;;2.05;0.95;;;;;11.80;101818.00;;;;5042195;28;20249;-86
2021/11/08 01:35:03;;;;;;;1.60;0.98;;;;;11.80;101825.00;;;;5043297;28;20202;-86
2021/11/08 01:37:31;;;;;;;1.85;1.10;;;;;11.70;101815.00;;;;5034651;28;20778;-85
2021/11/08 01:39:58;;;;;;;3.30;1.38;;;;;11.70;101818.00;;;;5045619;28;20196;-85
2021/11/08 01:42:26;;;;;;;2.58;1.00;;;;;11.70;101823.00;;;;5048067;28;20195;-85
2021/11/08 01:44:54;;;;;;;3.35;1.27;;;;;11.70;101823.00;;;;5031887;28;20192;-85
2021/11/08 01:47:21;;;;;;;2.45;0.80;;;;;11.70;101831.00;;;;5032825;28;20196;-85
2021/11/08 01:49:49;;;;;;;2.65;0.93;;;;;11.60;101826.00;;;;5045490;28;20215;-85
2021/11/08 01:52:16;;;;;;;3.95;1.00;;;;;11.60;101829.00;;;;5037581;28;20219;-86
2021/11/08 01:54:43;;;;;;;3.28;0.80;;;;;11.60;101823.00;;;;5047635;28;20195;-85
2021/11/08 01:57:11;;;;;;;4.25;0.77;;;;;11.60;101828.00;;;;5029191;28;20569;-85
2021/11/08 01:59:38;;;;;;;2.97;0.80;;;;;11.60;101835.00;;;;5033069;28;20196;-86
2021/11/08 02:02:07;;;;;;;1.60;0.85;;;;;11.50;101828.00;;;;5041197;28;20208;-86
2021/11/08 02:04:34;;;;;;;2.03;0.73;;;;;11.50;101826.00;;;;5031645;28;20196;-86
2021/11/08 02:07:02;;;;;;;1.85;0.90;;;;;11.50;101818.00;;;;5029569;28;20667;-85
2021/11/08 02:09:29;;;;;;;1.90;0.80;;;;;11.50;101818.00;;;;5030853;28;20731;-86
2021/11/08 02:11:57;;;;;;;1.95;0.70;;;;;11.40;101812.00;;;;5028966;28;20291;-85
2021/11/08 02:14:24;;;;;;;2.85;0.65;;;;;11.40;101811.00;;;;5029192;28;20213;-86
2021/11/08 02:16:51;;;;;;;6.03;0.82;;;;;11.40;101811.00;;;;5048188;28;20223;-85
2021/11/08 02:19:20;;;;;;;2.17;0.73;;;;;11.40;101806.00;;;;5033262;28;20192;-86
2021/11/08 02:21:50;;;;;;;2.78;1.08;;;;;11.40;101804.00;;;;5029807;28;20192;-86
2021/11/08 02:24:20;;;;;;;3.85;0.90;;;;;11.30;101805.00;;;;5028535;28;20297;-84
2021/11/08 02:26:48;;;;;;;2.40;0.60;;;;;11.30;101816.00;;;;5032442;28;20649;-85
2021/11/08 02:29:15;;;;;;;4.72;0.75;;;;;11.30;101810.00;;;;5036650;28;20215;-86
2021/11/08 02:31:43;;;;;;;3.35;0.80;;;;;11.30;101814.00;;;;5029107;28;20205;-86
2021/11/08 02:34:11;;;;;;;3.83;1.05;;;;;11.20;101816.00;;;;5027912;28;20662;-86
2021/11/08 02:36:42;;;;;;;2.42;0.80;;;;;11.20;101813.00;;;;5034020;28;20204;-85
2021/11/08 02:39:16;;;;;;;3.40;1.23;;;;;11.20;101813.00;;;;5027548;28;20737;-84
2021/11/08 02:41:43;;;;;;;2.65;0.63;;;;;11.20;101810.00;;;;5032979;28;20677;-86
2021/11/08 02:44:11;;;;;;;5.60;1.20;;;;;11.20;101807.00;;;;5038669;28;20199;-85
2021/11/08 02:46:40;;;;;;;5.20;1.80;;;;;11.20;101803.00;;;;5030339;28;20209;-85
2021/11/08 02:49:10;;;;;;;3.55;0.77;;;;;11.10;101800.00;;;;5031468;28;20212;-85
2021/11/08 02:51:42;;;;;;;1.15;0.63;;;;;11.10;101808.00;;;;5035596;28;20235;-86
2021/11/08 02:54:15;;;;;;;0.85;0.68;;;;;11.10;101811.00;;;;5031270;28;20231;-86
2021/11/08 02:56:42;;;;;;;3.05;0.88;;;;;11.10;101816.00;;;;5043115;28;20200;-85
2021/11/08 02:59:10;;;;;;;3.78;0.75;;;;;11.10;101822.00;;;;5032940;28;20204;-86
2021/11/08 03:01:37;;;;;;;1.23;0.77;;;;;11.00;101811.00;;;;5044135;28;20382;-85
2021/11/08 03:04:12;;;;;;;2.13;0.55;;;;;11.00;101815.00;;;;5050133;28;20288;-85
2021/11/08 03:06:39;;;;;;;2.00;0.77;;;;;11.00;101817.00;;;;5039646;28;20208;-85
2021/11/08 03:09:13;;;;;;;4.43;1.00;;;;;11.00;101823.00;;;;5043156;28;20590;-85
2021/11/08 03:11:41;;;;;;;2.67;0.60;;;;;11.00;101822.00;;;;5034183;28;20210;-87
2021/11/08 03:14:11;;;;;;;3.20;0.73;;;;;11.00;101815.00;;;;5044016;28;20227;-86
2021/11/08 03:16:41;;;;;;;1.50;1.00;;;;;10.90;101821.00;;;;5036202;28;20211;-84
2021/11/08 03:19:18;;;;;;;9.48;1.23;;;;;10.90;101829.00;;;;5046263;28;20214;-85
2021/11/08 03:21:49;;;;;;;2.85;0.57;;;;;10.90;101838.00;;;;5044214;28;20192;-85
2021/11/08 03:24:21;;;;;;;2.90;0.75;;;;;10.90;101838.00;;;;5044600;28;20188;-85
2021/11/08 03:26:51;;;;;;;3.00;0.80;;;;;10.90;101838.00;;;;5048016;28;20183;-85
2021/11/08 03:29:19;;;;;;;2.13;0.68;;;;;11.00;101833.00;;;;5044684;28;20200;-85
2021/11/08 03:31:49;;;;;;;2.40;0.80;;;;;11.00;101839.00;;;;5042783;28;20207;-86
2021/11/08 03:34:17;;;;;;;3.22;1.17;;;;;11.00;101834.00;;;;5047258;28;20234;-86
2021/11/08 03:36:48;;;;;;;2.53;0.90;;;;;11.00;101841.00;;;;5032933;28;20565;-85
2021/11/08 03:39:17;;;;;;;2.08;0.93;;;;;11.10;101846.00;;;;5040484;28;20227;-85
2021/11/08 03:41:44;;;;;;;2.55;0.98;;;;;11.10;101847.00;;;;5037638;28;20929;-86
2021/11/08 03:44:11;;;;;;;2.25;0.95;;;;;11.10;101854.00;;;;5050198;28;20195;-85
2021/11/08 03:46:39;;;;;;;2.50;0.90;;;;;11.20;101853.00;;;;5045427;28;20624;-86
2021/11/08 03:49:06;;;;;;;4.28;1.20;;;;;11.20;101854.00;;;;5045997;28;20203;-85
2021/11/08 03:51:33;;;;;;;4.88;1.27;;;;;11.20;101854.00;;;;5036706;28;20231;-85
2021/11/08 03:54:03;;;;;;;2.60;1.20;;;;;11.30;101849.00;;;;5050448;28;20227;-85
2021/11/08 03:56:32;;;;;;;2.38;0.98;;;;;11.30;101854.00;;;;5049130;28;20198;-86
2021/11/08 03:59:00;;;;;;;2.40;0.90;;;;;11.30;101853.00;;;;5032656;28;20196;-85
2021/11/08 04:01:29;;;;;;;4.22;1.20;;;;;11.40;101855.00;;;;5041021;28;20210;-85
2021/11/08 04:03:56;;;;;;;1.55;0.75;;;;;11.40;101862.00;;;;5031455;28;20692;-86
2021/11/08 04:06:24;;;;;;;1.45;0.70;;;;;11.40;101870.00;;;;5039124;28;20211;-86
2021/11/08 04:08:51;;;;;;;3.17;0.98;;;;;11.50;101863.00;;;;5047759;28;20207;-85
2021/11/08 04:11:18;;;;;;;1.90;0.93;;;;;11.50;101872.00;;;;5036971;28;20297;-85
2021/11/08 04:13:47;;;;;;;1.85;1.20;;;;;11.50;101864.00;;;;5039545;28;20220;-86
2021/11/08 04:16:17;;;;;;;2.42;0.70;;;;;11.50;101871.00;;;;5034006;28;20219;-85
2021/11/08 04:18:49;;;;;;;2.47;0.90;;;;;11.60;101879.00;;;;5038743;28;20203;-85
2021/11/08 04:21:16;;;;;;;1.42;0.82;;;;;11.60;101872.00;;;;5035879;28;20196;-85
2021/11/08 04:23:44;;;;;;;2.08;0.90;;;;;11.60;101877.00;;;;5048421;28;20204;-85
2021/11/08 04:26:16;;;;;;;5.78;1.00;;;;;11.60;101884.00;;;;5045814;28;20195;-86
2021/11/08 04:28:50;;;;;;;1.42;0.70;;;;;11.60;101880.00;;;;5038928;28;20196;-85
2021/11/08 04:31:19;;;;;;;1.48;0.65;;;;;11.60;101881.00;;;;5036093;28;20686;-86
2021/11/08 04:33:48;;;;;;;2.42;1.25;;;;;11.70;101886.00;;;;5032582;28;20607;-86
2021/11/08 04:36:38;;;;;;;2.65;0.93;;;;;11.70;101885.00;;;;5034567;28;20575;-85
2021/11/08 04:39:15;;;;;;;2.00;0.70;;;;;11.70;101886.00;;;;5029088;28;20216;-86
2021/11/08 04:41:49;;;;;;;1.83;1.10;;;;;11.60;101879.00;;;;5048241;28;20191;-85
2021/11/08 04:50:11;;;;;;;3.20;0.80;;;;;11.60;101871.00;;;;5007075;28;20227;-85
2021/11/08 04:52:54;;;;;;;1.10;0.70;;;;;11.60;101879.00;;;;5025345;28;20231;-86
2021/11/08 04:55:30;;;;;;;1.65;1.00;;;;;11.60;101878.00;;;;5035014;28;20286;-85
2021/11/08 04:58:19;;;;;;;6.22;0.95;;;;;11.60;101885.00;;;;5046992;28;20195;-85
2021/11/08 05:23:43;;;;;;;5.55;0.90;;;;;11.80;101893.00;;;;5005564;28;20733;-86
2021/11/08 05:31:41;;;;;;;2.28;1.08;;;;;11.80;101895.00;;;;5029537;28;20211;-85
2021/11/08 05:34:08;;;;;;;6.10;1.92;;;;;11.80;101909.00;;;;5028938;28;20227;-86
2021/11/08 05:36:37;;;;;;;5.40;1.77;;;;;11.80;101905.00;;;;5046751;28;20215;-84
2021/11/08 05:39:05;;;;;;;2.47;1.40;;;;;11.80;101913.00;;;;5047787;28;20211;-85
2021/11/08 05:41:33;;;;;;;1.90;1.13;;;;;11.90;101911.00;;;;5045121;28;20204;-85
2021/11/08 05:44:02;;;;;;;4.90;1.50;;;;;11.80;101914.00;;;;5044246;28;20203;-86
2021/11/08 05:46:29;;;;;;;4.65;1.13;;;;;11.80;101908.00;;;;5043699;28;20253;-85
2021/11/08 05:48:56;;;;;;;3.22;1.40;;;;;11.80;101913.00;;;;5030555;28;20192;-86
2021/11/08 05:51:24;;;;;;;4.28;0.98;;;;;11.80;101916.00;;;;5036897;28;20242;-85
2021/11/08 05:53:53;;;;;;;2.55;1.20;;;;;11.80;101920.00;;;;5032514;28;20224;-86
2021/11/08 05:56:27;;;;;;;2.92;1.23;;;;;11.90;101915.00;;;;5029196;28;20212;-85
2021/11/08 05:59:22;;;;;;;2.22;1.38;;;;;11.80;101925.00;;;;5031752;28;20287;-85
2021/11/08 06:51:28;;;;;;;2.30;1.20;;;;;12.00;101948.00;;;;5023443;28;20227;-86
2021/11/08 06:54:00;;;;;;;2.08;1.17;;;;;12.10;101960.00;;;;5047143;28;20246;-86
2021/11/08 06:56:31;;;;;;;3.53;1.50;;;;;12.10;101965.00;;;;5041435;28;20192;-87
2021/11/08 06:59:03;;;;;;;4.32;1.45;;;;;12.10;101962.00;;;;5050872;28;20203;-83
2021/11/08 07:01:34;;;;;;;3.75;1.80;;;;;12.20;101959.00;;;;5039050;28;20658;-85
2021/11/08 07:04:01;;;;;;;2.20;1.60;;;;;12.20;101959.00;;;;5045496;28;20572;-85
2021/11/08 07:06:28;;;;;;;3.13;1.73;;;;;12.20;101966.00;;;;5031310;28;20207;-84
2021/11/08 07:08:56;;;;;;;2.33;1.52;;;;;12.30;101972.00;;;;5031005;28;20215;-84
2021/11/08 07:11:23;;;;;;;4.10;2.08;;;;;12.30;101970.00;;;;5030124;28;20223;-84
2021/11/08 07:13:51;;;;;;;3.10;1.88;;;;;12.30;101973.00;;;;5030865;28;20220;-84
2021/11/08 07:16:19;;;;;;;4.68;2.20;;;;;12.30;101977.00;;;;5041431;28;20223;-84
2021/11/08 07:18:46;;;;;;;5.47;1.77;;;;;12.40;101979.00;;;;5051096;28;20204;-85
2021/11/08 07:21:14;;;;;;;3.78;1.77;;;;;12.40;101971.00;;;;5050408;28;20188;-84
2021/11/08 07:23:41;;;;;;;1.65;1.23;;;;;12.40;101973.00;;;;5049833;28;20196;-84
2021/11/08 07:26:11;;;;;;;1.90;1.63;;;;;12.40;101986.00;;;;5050894;28;20207;-84
2021/11/08 07:28:39;;;;;;;4.63;2.60;;;;;12.50;101993.00;;;;5049405;28;20199;-84
2021/11/08 07:31:08;;;;;;;3.70;1.95;;;;;12.50;101998.00;;;;5050800;28;20207;-84
2021/11/08 07:33:37;;;;;;;3.22;2.08;;;;;12.50;101997.00;;;;5036155;28;20215;-84
2021/11/08 07:36:05;;;;;;;3.22;2.20;;;;;12.60;102004.00;;;;5030424;28;20207;-84
2021/11/08 07:38:33;;;;;;;5.60;2.20;;;;;12.60;102001.00;;;;5029931;28;20216;-84
2021/11/08 07:41:01;;;;;;;5.03;2.35;;;;;12.70;102003.00;;;;5034850;28;20200;-83
2021/11/08 07:43:28;;;;;;;4.05;2.28;;;;;12.70;102007.00;;;;5037113;28;20220;-84
2021/11/08 07:45:55;;;;;;;3.58;1.90;;;;;12.70;102011.00;;;;5041021;28;20227;-86
2021/11/08 07:48:23;;;;;;;3.45;2.03;;;;;12.80;102021.00;;;;5034504;28;20254;-84
2021/11/08 07:50:51;;;;;;;3.30;2.20;;;;;12.80;102025.00;;;;5038683;28;20240;-85
2021/11/08 07:53:19;;;;;;;2.95;2.10;;;;;12.90;102031.00;;;;5033472;28;21085;-84
2021/11/08 07:55:47;;;;;;;4.22;2.05;;;;;12.90;102025.00;;;;5029826;28;20232;-84
2021/11/08 07:58:15;;;;;;;3.55;2.25;;;;;13.00;102028.00;;;;5029986;28;20293;-85
2021/11/08 08:00:44;;;;;;;3.40;1.80;;;;;13.00;102030.00;;;;5039067;28;20190;-84
2021/11/08 08:03:12;;;;;;;3.88;2.25;;;;;13.10;102031.00;;;;5037943;28;20224;-83
2021/11/08 08:05:39;;;;;;;4.10;2.50;;;;;13.20;102034.00;;;;5030821;28;20565;-83
2021/11/08 08:08:08;;;;;;;4.32;2.20;;;;;13.20;102031.00;;;;5043022;28;20215;-83
2021/11/08 08:10:35;;;;;;;4.90;2.08;;;;;13.30;102031.00;;;;5031788;28;20208;-82
2021/11/08 08:13:03;;;;;;;2.63;1.60;;;;;13.30;102039.00;;;;5047364;28;20199;-81
2021/11/08 08:15:32;;;;;;;5.18;2.10;;;;;13.40;102044.00;;;;5033914;28;20230;-85
2021/11/08 08:18:00;;;;;;;3.67;2.38;;;;;13.50;102047.00;;;;5042429;28;20645;-84
2021/11/08 08:20:31;;;;;;;3.78;1.95;;;;;13.50;102044.00;;;;5042698;28;20200;-84
2021/11/08 08:22:58;;;;;;;4.47;2.08;;;;;13.60;102055.00;;;;5048194;28;20550;-85
2021/11/08 08:25:27;;;;;;;2.88;2.03;;;;;13.60;102057.00;;;;5048415;28;20701;-84
2021/11/08 08:27:58;;;;;;;12.02;2.22;;;;;13.70;102058.00;;;;5030135;28;20215;-85
2021/11/08 08:30:26;;;;;;;3.15;1.80;;;;;13.80;102053.00;;;;5039385;28;20742;-86
2021/11/08 08:32:54;;;;;;;4.85;2.28;;;;;13.90;102057.00;;;;5043959;28;20196;-85
2021/11/08 08:35:21;;;;;;;3.35;2.03;;;;;13.90;102056.00;;;;5049602;28;20227;-85
2021/11/08 08:37:49;;;;;;;3.80;1.90;;;;;14.00;102060.00;;;;5049714;28;20199;-85
2021/11/08 08:40:17;;;;;;;5.10;2.15;;;;;14.10;102058.00;;;;5045994;28;20705;-85
2021/11/08 08:42:46;;;;;;;5.63;1.80;;;;;14.10;102061.00;;;;5041894;28;20615;-84
2021/11/08 08:45:14;;;;;;;4.10;1.63;;;;;14.20;102069.00;;;;5048501;28;20195;-85
2021/11/08 08:47:41;;;;;;;2.85;1.60;;;;;14.30;102068.00;;;;5049083;28;20203;-84
2021/11/08 08:50:09;;;;;;;4.20;1.60;;;;;14.30;102070.00;;;;5046818;28;20231;-83
2021/11/08 08:52:37;;;;;;;4.63;1.63;;;;;14.40;102064.00;;;;5037733;28;20203;-84
2021/11/08 08:55:05;;;;;;;3.67;1.38;;;;;14.50;102079.00;;;;5032968;28;20224;-83
2021/11/08 08:57:33;;;;;;;4.80;1.77;;;;;14.50;102084.00;;;;5043748;28;20203;-84
2021/11/08 09:00:02;;;;;;;2.10;1.30;;;;;14.60;102082.00;;;;5037495;28;20204;-84
2021/11/08 09:02:29;;;;;;;5.32;1.63;;;;;14.70;102079.00;;;;5028910;28;20200;-84
2021/11/08 09:04:56;;;;;;;4.55;1.85;;;;;14.70;102082.00;;;;5028685;28;20204;-81
2021/11/08 09:07:23;;;;;;;3.15;1.98;;;;;14.80;102091.00;;;;5028589;28;20258;-82
2021/11/08 09:09:50;;;;;;;3.75;1.75;;;;;14.80;102090.00;;;;5037140;28;20203;-82
2021/11/08 09:12:18;;;;;;;3.53;2.08;;;;;14.90;102084.00;;;;5038865;28;20200;-82
2021/11/08 09:14:45;;;;;;;5.93;1.92;;;;;15.00;102085.00;;;;5033178;28;20228;-82
2021/11/08 09:17:14;;;;;;;4.20;1.90;;;;;15.00;102092.00;;;;5040845;28;20205;-82
2021/11/08 09:19:41;;;;;;;3.15;1.50;;;;;15.10;102088.00;;;;5029558;28;20204;-81
2021/11/08 09:22:11;;;;;;;3.20;1.60;;;;;15.10;102072.00;;;;5043874;28;20199;-84
2021/11/08 09:24:38;;;;;;;3.28;2.00;;;;;15.20;102083.00;;;;5046790;28;20203;-83
2021/11/08 09:27:06;;;;;;;3.40;1.73;;;;;15.20;102083.00;;;;5035255;28;20197;-83
2021/11/08 09:29:33;;;;;;;3.78;2.15;;;;;15.20;102082.00;;;;5039788;28;20192;-84
2021/11/08 09:32:01;;;;;;;7.15;2.00;;;;;15.30;102074.00;;;;5037008;28;20204;-83
2021/11/08 09:34:33;;;;;;;4.03;2.20;;;;;15.30;102079.00;;;;5031048;28;20219;-83
2021/11/08 09:37:01;;;;;;;5.30;2.45;;;;;15.40;102092.00;;;;5028208;28;20192;-82
2021/11/08 09:39:29;;;;;;;5.35;1.77;;;;;15.40;102088.00;;;;5030272;28;20680;-82
2021/11/08 09:42:02;;;;;;;4.30;2.42;;;;;15.40;102095.00;;;;5040270;28;20295;-84
2021/11/08 09:44:29;;;;;;;3.67;1.95;;;;;15.50;102090.00;;;;5028736;28;20200;-84
2021/11/08 09:46:58;;;;;;;3.38;1.33;;;;;15.60;102093.00;;;;5027604;28;20644;-84
2021/11/08 09:49:26;;;;;;;3.45;2.10;;;;;15.60;102098.00;;;;5036638;28;20200;-84
2021/11/08 09:51:56;;;;;;;3.88;1.42;;;;;15.70;102090.00;;;;5033117;28;20231;-85
2021/11/08 09:54:27;;;;;;;4.13;1.58;;;;;15.80;102091.00;;;;5039828;28;20208;-86
2021/11/08 09:56:57;;;;;;;7.18;1.42;;;;;15.90;102092.00;;;;5035046;28;20590;-84
2021/11/08 09:59:24;;;;;;;4.50;1.35;;;;;15.90;102089.00;;;;5046591;28;20654;-84
2021/11/08 10:01:55;;;;;;;6.53;1.92;;;;;16.00;102092.00;;;;5034873;28;20237;-84
2021/11/08 10:04:23;;;;;;;6.70;1.65;;;;;16.10;102090.00;;;;5033910;28;20697;-82
2021/11/08 10:06:50;;;;;;;5.32;1.30;;;;;16.10;102095.00;;;;5048736;28;20600;-82
2021/11/08 10:09:19;;;;;;;9.18;1.40;;;;;16.20;102096.00;;;;5053626;28;20257;-82
2021/11/08 10:11:48;;;;;;;5.97;1.42;;;;;16.20;102094.00;;;;5054352;28;20203;-80
2021/11/08 10:14:16;;;;;;;6.18;1.30;;;;;16.20;102094.00;;;;5045294;28;20195;-82
2021/11/08 10:16:46;;;;;;;3.83;1.27;;;;;16.20;102093.00;;;;5054447;28;20211;-82
2021/11/08 10:19:21;;;;;;;3.97;1.42;;;;;16.20;102091.00;;;;5054604;28;20204;-81
2021/11/08 10:21:50;;;;;;;4.97;1.73;;;;;16.30;102091.00;;;;5054611;28;20191;-82
2021/11/08 10:24:21;;;;;;;4.38;1.40;;;;;16.30;102099.00;;;;5053458;28;20260;-81
2021/11/08 10:26:51;;;;;;;4.53;1.70;;;;;16.40;102092.00;;;;5051335;28;20211;-81
2021/11/08 10:29:21;;;;;;;5.68;1.30;;;;;16.40;102097.00;;;;5045227;28;20486;-82
2021/11/08 10:31:52;;;;;;;4.32;1.17;;;;;16.50;102100.00;;;;5034884;28;20674;-82
2021/11/08 10:34:21;;;;;;;6.72;1.80;;;;;16.60;102097.00;;;;5034247;28;20754;-81
2021/11/08 10:36:57;;;;;;;5.97;1.30;;;;;16.60;102096.00;;;;5035004;28;20640;-81
2021/11/08 10:39:26;;;;;;;4.15;1.60;;;;;16.80;102092.00;;;;5035582;28;20207;-82
2021/11/08 10:41:55;;;;;;;5.18;1.60;;;;;16.90;102102.00;;;;5035059;28;20208;-82
2021/11/08 10:44:23;;;;;;;6.13;1.45;;;;;16.90;102104.00;;;;5033751;28;20197;-81
2021/11/08 10:46:57;;;;;;;9.70;1.75;;;;;16.90;102091.00;;;;5048548;28;20229;-81
2021/11/08 10:49:26;;;;;;;5.63;1.70;;;;;17.00;102097.00;;;;5054709;28;20257;-82
2021/11/08 10:51:56;;;;;;;5.78;1.60;;;;;17.00;102099.00;;;;5042680;28;20223;-82
2021/11/08 10:54:27;;;;;;;5.07;1.15;;;;;17.10;102099.00;;;;5035099;28;20207;-82
2021/11/08 10:56:57;;;;;;;9.60;1.88;;;;;17.10;102092.00;;;;5043307;28;20230;-82
2021/11/08 10:59:29;;;;;;;5.22;1.60;;;;;17.20;102091.00;;;;5054480;28;20203;-82
2021/11/08 11:01:59;;;;;;;4.95;1.70;;;;;17.20;102094.00;;;;5054443;28;20588;-82
2021/11/08 11:04:31;;;;;;;4.72;1.88;;;;;17.20;102087.00;;;;5047462;28;20212;-82
2021/11/08 11:06:58;;;;;;;4.63;1.58;;;;;17.30;102095.00;;;;5052359;28;20191;-86
2021/11/08 11:09:29;;;;;;;4.05;1.50;;;;;17.30;102092.00;;;;5044315;28;20195;-86
2021/11/08 11:12:11;;;;;;;7.28;1.67;;;;;17.20;102100.00;;;;5037865;28;20200;-86
2021/11/08 11:14:40;;;;;;;6.93;1.70;;;;;17.40;102109.00;;;;5046109;28;20203;-84
2021/11/08 11:17:10;;;;;;;5.13;1.63;;;;;17.50;102111.00;;;;5050198;28;20579;-84
2021/11/08 11:19:38;;;;;;;6.35;1.75;;;;;17.50;102110.00;;;;5049688;28;20223;-84
2021/11/08 11:22:09;;;;;;;3.72;1.80;;;;;17.60;102107.00;;;;5031505;28;20287;-85
2021/11/08 11:24:43;;;;;;;4.28;1.25;;;;;17.60;102109.00;;;;5031978;28;20226;-82
2021/11/08 11:27:16;;;;;;;6.07;1.67;;;;;17.80;102114.00;;;;5031053;28;20914;-81
2021/11/08 11:29:44;;;;;;;6.25;1.45;;;;;17.80;102112.00;;;;5041458;28;20264;-81
2021/11/08 11:32:20;;;;;;;5.05;2.20;;;;;17.80;102102.00;;;;5046180;28;20212;-84
2021/11/08 11:34:48;;;;;;;5.38;1.80;;;;;18.00;102111.00;;;;5050769;28;20716;-83
2021/11/08 11:37:17;;;;;;;5.82;1.60;;;;;18.10;102101.00;;;;5041957;28;20196;-82
2021/11/08 11:39:46;;;;;;;8.43;2.80;;;;;18.20;102107.00;;;;5050805;28;20249;-81
2021/11/08 11:42:13;;;;;;;5.63;1.40;;;;;18.30;102109.00;;;;5039962;28;20208;-83
2021/11/08 11:44:41;;;;;;;5.43;1.08;;;;;18.30;102113.00;;;;5047019;28;20199;-84
2021/11/08 11:47:16;;;;;;;5.70;1.13;;;;;18.40;102108.00;;;;5048865;28;20318;-84
2021/11/08 11:49:45;;;;;;;5.85;1.90;;;;;18.60;102111.00;;;;5031344;28;20207;-83
2021/11/08 11:52:13;;;;;;;3.60;1.40;;;;;18.70;102111.00;;;;5043675;28;20207;-84
2021/11/08 11:54:40;;;;;;;5.28;1.52;;;;;18.80;102107.00;;;;5040665;28;20212;-83
2021/11/08 11:57:09;;;;;;;4.78;1.48;;;;;18.90;102107.00;;;;5030191;28;20235;-83
2021/11/08 11:59:37;;;;;;;7.13;1.67;;;;;19.10;102118.00;;;;5030812;28;20717;-83
2021/11/08 12:02:05;;;;;;;6.70;1.48;;;;;19.20;102116.00;;;;5029699;28;20200;-83
2021/11/08 12:04:32;;;;;;;5.25;1.40;;;;;19.30;102126.00;;;;5030669;28;20205;-84
2021/11/08 12:07:04;;;;;;;5.28;1.23;;;;;19.30;102117.00;;;;5030041;28;20196;-83
2021/11/08 12:09:35;;;;;;;7.53;1.48;;;;;19.30;102109.00;;;;5030560;28;20200;-84
2021/11/08 12:12:03;;;;;;;6.20;1.67;;;;;19.40;102112.00;;;;5030092;28;20192;-83
2021/11/08 12:14:33;;;;;;;10.57;1.55;;;;;19.40;102113.00;;;;5044847;28;20688;-83
2021/11/08 12:17:03;;;;;;;4.80;1.60;;;;;19.50;102102.00;;;;5049745;28;20227;-83
2021/11/08 12:19:32;;;;;;;8.15;1.50;;;;;19.50;102101.00;;;;5049840;28;20200;-83
2021/11/08 12:22:11;;;;;;;4.35;1.42;;;;;19.60;102105.00;;;;5040387;28;20204;-83
2021/11/08 12:24:38;;;;;;;5.25;1.65;;;;;19.60;102097.00;;;;5030609;28;20192;-83
2021/11/08 12:27:08;;;;;;;8.93;1.35;;;;;19.70;102106.00;;;;5033794;28;20196;-83
2021/11/08 12:29:49;;;;;;;7.78;1.63;;;;;19.60;102089.00;;;;5050340;28;20203;-82
2021/11/08 12:32:16;;;;;;;3.95;1.27;;;;;19.70;102094.00;;;;5047214;28;20954;-83
2021/11/08 12:34:46;;;;;;;5.05;1.40;;;;;19.80;102091.00;;;;5030540;28;20211;-83
2021/11/08 12:37:15;;;;;;;3.40;1.15;;;;;19.80;102087.00;;;;5029295;28;20219;-84
2021/11/08 12:39:43;;;;;;;5.60;1.60;;;;;19.80;102100.00;;;;5045276;28;20597;-84
2021/11/08 12:42:13;;;;;;;3.75;1.40;;;;;19.80;102079.00;;;;5044578;28;20192;-84
2021/11/08 12:44:44;;;;;;;3.75;1.50;;;;;19.80;102085.00;;;;5037398;28;20617;-84
2021/11/08 12:47:13;;;;;;;4.78;1.27;;;;;19.90;102083.00;;;;5037359;28;20207;-85
2021/11/08 12:49:42;;;;;;;7.43;1.83;;;;;19.90;102080.00;;;;5047160;28;20204;-85
2021/11/08 12:52:14;;;;;;;6.68;1.42;;;;;20.00;102080.00;;;;5036565;28;20189;-84
2021/11/08 12:54:49;;;;;;;9.40;1.42;;;;;19.90;102084.00;;;;5030175;28;20642;-84
2021/11/08 12:57:19;;;;;;;10.57;1.73;;;;;20.00;102080.00;;;;5046776;28;20234;-84
2021/11/08 12:59:50;;;;;;;11.27;1.52;;;;;19.90;102080.00;;;;5049163;28;20203;-83
2021/11/08 13:02:26;;;;;;;7.55;2.20;;;;;19.80;102078.00;;;;5028607;28;20196;-85
2021/11/08 13:04:55;;;;;;;5.38;1.05;;;;;19.80;102071.00;;;;5037060;28;20215;-85
2021/11/08 13:07:22;;;;;;;6.43;1.52;;;;;19.90;102071.00;;;;5029800;28;20203;-85
2021/11/08 13:09:52;;;;;;;6.40;1.20;;;;;19.80;102079.00;;;;5029045;28;20678;-84
2021/11/08 13:12:23;;;;;;;6.22;0.95;;;;;19.80;102069.00;;;;5028731;28;20212;-84
2021/11/08 13:15:05;;;;;;;6.18;1.60;;;;;19.80;102070.00;;;;5030304;28;20290;-85
2021/11/08 13:17:44;;;;;;;6.70;1.15;;;;;19.90;102067.00;;;;5044742;28;20648;-84
2021/11/08 13:20:11;;;;;;;5.57;1.10;;;;;19.80;102074.00;;;;5047963;28;20203;-85
2021/11/08 13:22:41;;;;;;;4.57;0.77;;;;;19.80;102077.00;;;;5049062;28;20207;-85
2021/11/08 13:25:11;;;;;;;3.17;0.90;;;;;19.90;102069.00;;;;5047543;28;20211;-85
2021/11/08 13:27:43;;;;;;;6.82;1.15;;;;;19.90;102076.00;;;;5048688;28;20210;-85
2021/11/08 13:30:14;;;;;;;3.33;0.80;;;;;19.80;102073.00;;;;5037339;28;20573;-85
2021/11/08 13:32:42;;;;;;;3.22;0.80;;;;;19.80;102074.00;;;;5027947;28;20188;-85
2021/11/08 13:35:15;;;;;;;5.03;1.13;;;;;19.70;102074.00;;;;5027835;28;20204;-85
2021/11/08 13:37:43;;;;;;;3.80;1.08;;;;;19.70;102076.00;;;;5028503;28;20235;-86
2021/11/08 13:40:17;;;;;;;2.42;0.60;;;;;19.60;102077.00;;;;5027491;28;20211;-85
2021/11/08 13:42:45;;;;;;;3.88;1.48;;;;;19.60;102076.00;;;;5030908;28;20665;-85